createdAt,value
2018-12-02T00:00:01.256Z,101099.09
2018-12-02T00:04:44.903Z,101101.11
2018-12-02T00:09:27.767Z,101097.05
2018-12-02T00:14:11.694Z,101098.09
2018-12-02T00:18:55.019Z,101110.63
2018-12-02T00:23:39.400Z,101105.03
2018-12-02T00:28:22.483Z,101100.30
2018-12-02T00:33:06.557Z,101099.89
2018-12-02T00:37:53.288Z,101093.50
2018-12-02T00:42:37.185Z,101080.06
2018-12-02T00:47:21.151Z,101077.02
2018-12-02T00:52:04.682Z,101069.20
2018-12-02T00:56:47.692Z,101061.63
2018-12-02T01:01:30.584Z,101054.81
2018-12-02T01:06:15.073Z,101061.10
2018-12-02T01:10:58.831Z,101055.31
2018-12-02T01:15:44.167Z,101059.38
2018-12-02T01:20:27.931Z,101065.85
2018-12-02T01:25:12.603Z,101056.80
2018-12-02T01:29:56.523Z,101066.41
2018-12-02T01:34:42.213Z,101058.72
2018-12-02T01:39:26.117Z,101054.56
2018-12-02T01:44:11.814Z,101049.97
2018-12-02T01:48:56.349Z,101044.01
2018-12-02T01:53:39.885Z,101045.84
2018-12-02T01:58:23.684Z,101041.54
2018-12-02T02:03:07.507Z,101042.20
2018-12-02T02:07:53.288Z,101051.07
2018-12-02T02:12:37.365Z,101058.88
2018-12-02T02:17:21.262Z,101055.97
2018-12-02T02:22:04.170Z,101055.92
2018-12-02T02:26:49.103Z,101054.36
2018-12-02T02:31:31.973Z,101061.32
2018-12-02T02:36:16.893Z,101058.34
2018-12-02T02:40:59.770Z,101067.39
2018-12-02T02:45:42.629Z,101062.77
2018-12-02T02:50:26.014Z,101070.56
2018-12-02T02:55:09.952Z,101064.58
2018-12-02T02:59:52.817Z,101053.55
2018-12-02T03:04:35.736Z,101048.85
2018-12-02T03:09:18.601Z,101054.88
2018-12-02T03:14:01.493Z,101040.96
2018-12-02T03:18:44.346Z,101044.42
2018-12-02T03:23:27.275Z,101042.33
2018-12-02T03:28:10.426Z,101038.52
2018-12-02T03:32:53.498Z,101036.09
2018-12-02T03:37:40.027Z,101041.13
2018-12-02T03:42:22.905Z,101044.98
2018-12-02T03:47:07.504Z,101049.82
2018-12-02T03:51:50.373Z,101046.44
2018-12-02T03:56:36.414Z,101051.25
2018-12-02T04:01:20.000Z,101048.69
2018-12-02T04:06:03.702Z,101041.84
2018-12-02T04:10:46.561Z,101046.35
2018-12-02T04:15:29.504Z,101049.80
2018-12-02T04:20:14.353Z,101060.86
2018-12-02T04:24:58.300Z,101062.50
2018-12-02T04:29:41.169Z,101060.66
2018-12-02T04:34:27.360Z,101057.03
2018-12-02T04:39:10.258Z,101053.34
2018-12-02T04:43:54.320Z,101054.30
2018-12-02T04:48:38.092Z,101056.63
2018-12-02T04:53:21.383Z,101059.41
2018-12-02T04:58:06.517Z,101060.31
2018-12-02T05:02:52.112Z,101062.84
2018-12-02T05:07:37.069Z,101066.08
2018-12-02T05:12:19.947Z,101069.41
2018-12-02T05:17:03.848Z,101076.88
2018-12-02T05:21:46.722Z,101077.33
2018-12-02T05:26:30.654Z,101078.84
2018-12-02T05:31:14.458Z,101086.59
2018-12-02T05:35:58.137Z,101088.94
2018-12-02T05:40:41.791Z,101090.01
2018-12-02T05:45:25.439Z,101105.53
2018-12-02T05:50:13.588Z,101103.93
2018-12-02T05:54:59.713Z,101108.90
2018-12-02T05:59:42.592Z,101116.03
2018-12-02T06:04:26.253Z,101116.92
2018-12-02T06:09:10.093Z,101122.06
2018-12-02T06:13:53.749Z,101132.05
2018-12-02T06:18:37.400Z,101135.45
2018-12-02T06:23:22.217Z,101134.30
2018-12-02T06:28:06.247Z,101140.24
2018-12-02T06:32:52.475Z,101144.55
2018-12-02T06:37:36.458Z,101148.41
2018-12-02T06:42:19.332Z,101144.01
2018-12-02T06:47:05.992Z,101143.42
2018-12-02T06:51:50.656Z,101146.40
2018-12-02T06:56:43.376Z,101149.22
2018-12-02T07:01:41.251Z,101146.95
2018-12-02T07:06:27.965Z,101141.23
2018-12-02T07:11:11.864Z,101137.92
2018-12-02T07:15:57.568Z,101141.87
2018-12-02T07:20:44.507Z,101137.62
2018-12-02T07:25:31.765Z,101139.19
2018-12-02T07:30:15.490Z,101137.61
2018-12-02T07:35:00.977Z,101137.30
2018-12-02T07:39:58.857Z,101138.33
2018-12-02T07:44:42.868Z,101141.91
2018-12-02T07:49:26.565Z,101143.17
2018-12-02T07:54:11.491Z,101140.16
2018-12-02T07:58:55.862Z,101145.45
2018-12-02T08:03:42.121Z,101153.40
2018-12-02T08:08:25.879Z,101158.80
2018-12-02T08:13:10.853Z,101162.50
2018-12-02T08:17:54.472Z,101160.56
2018-12-02T08:22:38.266Z,101162.77
2018-12-02T08:27:23.307Z,101163.97
2018-12-02T08:32:08.636Z,101158.08
2018-12-02T08:36:55.468Z,101148.47
2018-12-02T08:41:40.267Z,101148.49
2018-12-02T08:46:25.855Z,101138.84
2018-12-02T08:51:10.913Z,101133.00
2018-12-02T08:55:55.592Z,101132.41
2018-12-02T09:00:39.415Z,101129.52
2018-12-02T09:05:27.760Z,101121.77
2018-12-02T09:10:14.911Z,101122.45
2018-12-02T09:15:02.742Z,101115.20
2018-12-02T09:19:46.310Z,101112.41
2018-12-02T09:24:31.195Z,101096.20
2018-12-02T09:29:15.402Z,101101.86
2018-12-02T09:33:59.319Z,101094.53
2018-12-02T09:38:43.864Z,101095.01
2018-12-02T09:43:28.664Z,101094.27
2018-12-02T09:48:12.829Z,101093.34
2018-12-02T09:52:58.980Z,101089.09
2018-12-02T09:57:43.026Z,101080.38
2018-12-02T10:02:27.187Z,101082.20
2018-12-02T10:07:13.315Z,101080.82
2018-12-02T10:11:56.909Z,101085.05
2018-12-02T10:16:45.082Z,101078.95
2018-12-02T10:21:28.879Z,101073.41
2018-12-02T10:26:14.660Z,101069.21
2018-12-02T10:30:58.825Z,101068.21
2018-12-02T10:35:42.969Z,101056.31
2018-12-02T10:40:28.940Z,101062.34
2018-12-02T10:45:16.289Z,101062.33
2018-12-02T10:49:59.940Z,101049.88
2018-12-02T10:54:43.733Z,101045.64
2018-12-02T10:59:27.506Z,101043.37
2018-12-02T11:04:11.412Z,101040.13
2018-12-02T11:08:55.710Z,101026.84
2018-12-02T11:13:39.730Z,101013.46
2018-12-02T11:18:23.526Z,101009.94
2018-12-02T11:23:11.125Z,101008.68
2018-12-02T11:27:55.435Z,101004.78
2018-12-02T11:32:40.484Z,101000.41
2018-12-02T11:37:23.408Z,101003.48
2018-12-02T11:42:06.317Z,100999.90
2018-12-02T11:46:51.241Z,101001.61
2018-12-02T11:51:34.913Z,100998.19
2018-12-02T11:56:20.158Z,100988.23
2018-12-02T12:01:04.949Z,100992.19
2018-12-02T12:05:52.468Z,100990.42
2018-12-02T12:10:36.998Z,100987.02
2018-12-02T12:15:26.939Z,100980.14
2018-12-02T12:20:16.051Z,100979.22
2018-12-02T12:24:59.849Z,100975.28
2018-12-02T12:29:43.495Z,100975.70
2018-12-02T12:34:27.165Z,100977.83
2018-12-02T12:39:10.937Z,100986.47
2018-12-02T12:43:55.052Z,100990.38
2018-12-02T12:48:38.261Z,100990.37
2018-12-02T12:53:21.288Z,100985.11
2018-12-02T12:58:04.893Z,100988.97
2018-12-02T13:02:49.706Z,100990.30
2018-12-02T13:07:33.214Z,100990.42
2018-12-02T13:12:18.923Z,100984.80
2018-12-02T13:17:03.078Z,100987.77
2018-12-02T13:21:47.125Z,100992.08
2018-12-02T13:26:33.967Z,100989.89
2018-12-02T13:31:20.157Z,100981.69
2018-12-02T13:36:07.640Z,100971.00
2018-12-02T13:40:56.136Z,100978.30
2018-12-02T13:45:44.158Z,100976.44
2018-12-02T13:50:27.830Z,100959.05
2018-12-02T13:55:12.816Z,100963.91
2018-12-02T13:59:56.430Z,100958.56
2018-12-02T14:04:40.322Z,100969.73
2018-12-02T14:09:24.485Z,100970.94
2018-12-02T14:14:09.689Z,100977.33
2018-12-02T14:18:55.002Z,100971.63
2018-12-02T14:23:42.673Z,100980.22
2018-12-02T14:28:30.834Z,100977.98
2018-12-02T14:33:14.573Z,100975.30
2018-12-02T14:37:58.488Z,100969.20
2018-12-02T14:44:14.759Z,100975.59
2018-12-02T14:48:57.715Z,100976.31
2018-12-02T14:53:42.659Z,100973.09
2018-12-02T14:58:25.587Z,100969.52
2018-12-02T15:03:08.724Z,100970.68
2018-12-02T15:07:51.609Z,100974.84
2018-12-02T15:12:35.759Z,100981.94
2018-12-02T15:17:18.681Z,100975.00
2018-12-02T15:22:01.566Z,100988.70
2018-12-02T15:26:44.588Z,100995.28
2018-12-02T15:31:27.438Z,100990.51
2018-12-02T15:36:11.522Z,100992.64
2018-12-02T15:40:54.400Z,100989.59
2018-12-02T15:45:38.423Z,100987.39
2018-12-02T15:50:22.787Z,100998.48
2018-12-02T15:55:07.966Z,101001.59
2018-12-02T15:59:51.987Z,101000.96
2018-12-02T16:04:36.904Z,101004.80
2018-12-02T16:09:22.556Z,101006.06
2018-12-02T16:14:07.148Z,101007.80
2018-12-02T16:18:50.053Z,101002.73
2018-12-02T16:23:33.019Z,101003.71
2018-12-02T16:28:16.066Z,101008.52
2018-12-02T16:32:59.083Z,101003.28
2018-12-02T16:37:42.310Z,101010.03
2018-12-02T16:42:28.213Z,101008.45
2018-12-02T16:47:12.722Z,101017.31
2018-12-02T16:52:00.546Z,101007.47
2018-12-02T16:56:45.733Z,101010.14
2018-12-02T17:01:31.817Z,101012.81
2018-12-02T17:06:16.368Z,101008.54
2018-12-02T17:11:00.361Z,101011.24
2018-12-02T17:15:47.339Z,101009.59
2018-12-02T17:20:31.611Z,101009.23
2018-12-02T17:25:15.657Z,101017.05
2018-12-02T17:29:59.060Z,101016.77
2018-12-02T17:34:42.839Z,101020.61
2018-12-02T17:39:27.953Z,101021.91
2018-12-02T17:44:12.452Z,101012.02
2018-12-02T17:48:55.338Z,101022.77
2018-12-02T17:53:40.723Z,101020.22
2018-12-02T17:58:23.598Z,101013.83
2018-12-02T18:03:09.092Z,101026.87
2018-12-02T18:07:54.732Z,101024.30
2018-12-02T18:12:38.442Z,101032.54
2018-12-02T18:17:22.086Z,101034.73
2018-12-02T18:22:08.182Z,101027.41
2018-12-02T18:26:52.264Z,101031.77
2018-12-02T18:31:37.275Z,101026.57
2018-12-02T18:36:27.391Z,101020.96
2018-12-02T18:41:14.914Z,101019.66
2018-12-02T18:45:59.960Z,101029.11
2018-12-02T18:50:43.655Z,101021.73
2018-12-02T18:55:28.716Z,101017.02
2018-12-02T19:00:20.903Z,101020.41
2018-12-02T19:05:06.515Z,101010.83
2018-12-02T19:09:50.412Z,101000.46
2018-12-02T19:14:34.065Z,101002.61
2018-12-02T19:19:17.975Z,101000.05
2018-12-02T19:24:01.890Z,100996.96
2018-12-02T19:28:46.038Z,100992.64
2018-12-02T19:33:33.532Z,100997.47
2018-12-02T19:38:21.742Z,101000.85
2018-12-02T19:43:06.273Z,100989.27
2018-12-02T19:47:50.764Z,100987.45
2018-12-02T19:52:34.926Z,100995.50
2018-12-02T19:57:19.466Z,100993.81
2018-12-02T20:02:04.652Z,100983.41
2018-12-02T20:06:48.577Z,100987.22
2018-12-02T20:11:35.590Z,100980.22
2018-12-02T20:16:19.333Z,100978.11
2018-12-02T20:21:03.748Z,100982.92
2018-12-02T20:25:48.423Z,100983.23
2018-12-02T20:30:33.776Z,100975.66
2018-12-02T20:35:17.372Z,100973.97
2018-12-02T20:40:01.550Z,100973.95
2018-12-02T20:44:45.450Z,100968.30
2018-12-02T20:49:29.106Z,100973.56
2018-12-02T20:54:13.576Z,100973.05
2018-12-02T20:58:57.175Z,100977.00
2018-12-02T21:03:43.630Z,100980.48
2018-12-02T21:08:27.295Z,100980.46
2018-12-02T21:13:10.997Z,100977.02
2018-12-02T21:17:54.594Z,100982.63
2018-12-02T21:22:40.544Z,100987.90
2018-12-02T21:27:24.332Z,100980.84
2018-12-02T21:32:11.422Z,100977.46
2018-12-02T21:36:55.474Z,100974.77
2018-12-02T21:41:42.821Z,100967.78
2018-12-02T21:46:26.191Z,100971.52
2018-12-02T21:51:09.870Z,100966.88
2018-12-02T21:55:53.516Z,100959.14
2018-12-02T22:00:42.944Z,100951.27
2018-12-02T22:05:26.724Z,100945.73
2018-12-02T22:10:11.911Z,100937.12
2018-12-02T22:14:55.603Z,100931.06
2018-12-02T22:19:39.245Z,100928.95
2018-12-02T22:24:24.583Z,100922.73
2018-12-02T22:29:08.294Z,100916.38
2018-12-02T22:33:52.211Z,100906.33
2018-12-02T22:38:35.871Z,100904.50
2018-12-02T22:43:20.418Z,100898.45
2018-12-02T22:48:04.178Z,100893.27
2018-12-02T22:52:52.323Z,100893.66
2018-12-02T22:57:35.838Z,100888.09
2018-12-02T23:02:24.558Z,100889.30
2018-12-02T23:07:08.512Z,100882.62
2018-12-02T23:11:53.754Z,100885.75
2018-12-02T23:16:38.609Z,100881.00
2018-12-02T23:21:22.272Z,100883.56
2018-12-02T23:26:06.189Z,100882.62
2018-12-02T23:30:51.887Z,100884.36
2018-12-02T23:35:35.539Z,100882.16
2018-12-02T23:40:21.483Z,100880.73
2018-12-02T23:45:09.245Z,100885.06
2018-12-02T23:49:52.910Z,100873.44
2018-12-02T23:54:38.729Z,100880.67
2018-12-02T23:59:22.547Z,100872.86
